Time,TemperatureF,DewpointF,PressureIn,WindDirection,WindDirectionDegrees,WindSpeedMPH,WindSpeedGustMPH,Humidity,HourlyPrecipIn,Conditions,Clouds,dailyrainin,SoftwareType,DateUTC
2013-06-08 06:02:00,61.0,59.0,29.93,NNE,30,0.0,0.0,94,0.00,,,0.00,,2013-06-08 11:02:00,
2013-06-08 06:12:00,61.0,59.0,29.93,NNE,30,0.0,0.0,94,0.00,,,0.00,,2013-06-08 11:12:00,
2013-06-08 06:22:00,61.0,59.0,29.93,NNE,30,0.0,0.0,94,0.00,,,0.00,,2013-06-08 11:22:00,
2013-06-08 06:32:00,61.0,59.0,29.94,NNE,30,0.0,0.0,94,0.00,,,0.00,,2013-06-08 11:32:00,
2013-06-08 06:42:00,61.0,59.0,29.94,NNE,30,0.0,0.0,94,0.00,,,0.00,,2013-06-08 11:42:00,
2013-06-08 06:52:00,61.0,60.0,29.95,NNE,30,0.0,0.0,95,0.00,,,0.00,,2013-06-08 11:52:00,
2013-06-08 07:02:00,61.0,60.0,29.95,NNE,30,0.0,0.0,96,0.00,,,0.00,,2013-06-08 12:02:00,
2013-06-08 07:12:00,61.0,60.0,29.95,NNE,30,0.0,0.0,96,0.00,,,0.00,,2013-06-08 12:12:00,
2013-06-08 07:22:00,62.0,61.0,29.96,NNE,30,0.0,0.0,96,0.00,,,0.00,,2013-06-08 12:22:00,
2013-06-08 07:32:00,63.0,62.0,29.95,NNE,30,0.0,0.0,96,0.00,,,0.00,,2013-06-08 12:32:00,
2013-06-08 07:42:00,63.0,62.0,29.95,NNE,30,0.0,0.0,96,0.00,,,0.00,,2013-06-08 12:42:00,
2013-06-08 07:52:00,64.0,63.0,29.96,NNE,30,0.0,0.0,96,0.00,,,0.00,,2013-06-08 12:52:00,
2013-06-08 08:02:00,64.0,63.0,29.96,NW,315,0.0,1.0,96,0.00,,,0.00,,2013-06-08 13:02:00,
2013-06-08 08:12:00,64.0,63.0,29.96,NW,315,0.0,1.0,96,0.00,,,0.00,,2013-06-08 13:12:00,
2013-06-08 08:22:00,65.0,64.0,29.98,NW,315,0.0,2.0,96,0.00,,,0.00,,2013-06-08 13:22:00,
2013-06-08 08:32:00,65.0,64.0,29.99,NW,315,1.0,1.0,95,0.00,,,0.00,,2013-06-08 13:32:00,
2013-06-08 08:42:00,65.0,64.0,29.99,NW,315,1.0,1.0,95,0.00,,,0.00,,2013-06-08 13:42:00,
2013-06-08 08:52:00,66.0,65.0,29.99,NW,315,0.0,1.0,95,0.00,,,0.00,,2013-06-08 13:52:00,
2013-06-08 09:02:00,67.0,64.0,30.00,NW,315,0.0,0.0,91,0.00,,,0.00,,2013-06-08 14:02:00,
2013-06-08 09:12:00,67.0,64.0,30.00,NW,315,0.0,0.0,91,0.00,,,0.00,,2013-06-08 14:12:00,
2013-06-08 09:22:00,67.0,64.0,30.00,NW,315,0.0,1.0,89,0.00,,,0.00,,2013-06-08 14:22:00,
2013-06-08 09:32:00,68.0,62.0,29.99,NW,315,0.0,2.0,82,0.00,,,0.00,,2013-06-08 14:32:00,
2013-06-08 09:42:00,68.0,62.0,29.99,NW,315,0.0,2.0,82,0.00,,,0.00,,2013-06-08 14:42:00,
2013-06-08 09:52:00,69.0,62.0,29.99,NW,315,0.0,1.0,79,0.00,,,0.00,,2013-06-08 14:52:00,
2013-06-08 10:02:00,70.0,61.0,29.99,NW,324,2.0,3.0,72,0.00,,,0.00,,2013-06-08 15:02:00,
2013-06-08 10:12:00,70.0,61.0,29.99,NW,324,2.0,3.0,72,0.00,,,0.00,,2013-06-08 15:12:00,
2013-06-08 10:22:00,71.0,61.0,29.99,NW,324,0.0,0.0,70,0.00,,,0.00,,2013-06-08 15:22:00,
2013-06-08 10:32:00,72.0,60.0,29.99,NNW,342,0.0,0.0,65,0.00,,,0.00,,2013-06-08 15:32:00,
2013-06-08 10:42:00,72.0,60.0,29.99,NNW,342,0.0,0.0,65,0.00,,,0.00,,2013-06-08 15:42:00,
2013-06-08 10:53:00,73.0,60.0,29.99,SSW,200,1.0,1.0,64,0.00,,,0.00,,2013-06-08 15:53:00,
2013-06-08 11:03:00,75.0,61.0,29.99,South,176,0.0,0.0,61,0.00,,,0.00,,2013-06-08 16:03:00,
2013-06-08 11:12:00,75.0,61.0,29.99,South,176,0.0,0.0,61,0.00,,,0.00,,2013-06-08 16:12:00,
2013-06-08 11:23:00,76.0,61.0,29.99,SSW,192,0.0,1.0,60,0.00,,,0.00,,2013-06-08 16:23:00,
2013-06-08 11:33:00,76.0,58.0,29.99,NNW,338,2.0,3.0,53,0.00,,,0.00,,2013-06-08 16:33:00,
2013-06-08 11:42:00,76.0,58.0,29.99,NNW,338,2.0,3.0,53,0.00,,,0.00,,2013-06-08 16:42:00,
2013-06-08 11:53:00,76.0,61.0,29.99,WNW,287,1.0,2.0,59,0.00,,,0.00,,2013-06-08 16:53:00,
2013-06-08 12:02:00,77.0,62.0,29.99,NNE,22,0.0,1.0,60,0.00,,,0.00,,2013-06-08 17:02:00,
2013-06-08 12:12:00,77.0,62.0,29.99,NNE,22,0.0,1.0,60,0.00,,,0.00,,2013-06-08 17:12:00,
2013-06-08 12:22:00,77.0,62.0,29.99,NNE,22,0.0,1.0,60,0.00,,,0.00,,2013-06-08 17:22:00,
2013-06-08 12:32:00,77.0,62.0,29.99,NNE,22,0.0,1.0,60,0.00,,,0.00,,2013-06-08 17:32:00,
2013-06-08 12:42:00,77.0,62.0,29.99,NNE,22,0.0,1.0,60,0.00,,,0.00,,2013-06-08 17:42:00,
2013-06-08 18:02:00,81.0,63.0,29.95,SSE,155,0.0,0.0,55,0.00,,,0.00,,2013-06-08 23:02:00,
2013-06-08 18:12:00,80.0,63.0,29.95,SSE,155,0.0,0.0,56,0.00,,,0.00,,2013-06-08 23:12:00,
2013-06-08 18:22:00,80.0,63.0,29.95,SSE,155,0.0,0.0,56,0.00,,,0.00,,2013-06-08 23:22:00,
2013-06-08 18:32:00,80.0,63.0,29.95,SSE,155,0.0,0.0,56,0.00,,,0.00,,2013-06-08 23:32:00,
2013-06-08 18:42:00,80.0,63.0,29.95,SSE,155,0.0,0.0,56,0.00,,,0.00,,2013-06-08 23:42:00,
2013-06-08 18:52:00,80.0,63.0,29.95,SSE,155,0.0,0.0,56,0.00,,,0.00,,2013-06-08 23:52:00,